CheckWX is a tool to help pilots better visualize weather data.  It is not intended as a substitute for an official pre-flight weather briefing.

23:52:12 UTC

KBED METAR
Laurence G Hanscom Field Airport
Bedford, Massachusetts, USA
Current

1 hour ago

KBED 182251Z 31007KT 10SM SCT048 11/02 A2982 RMK AO2 SLP111 T01060022
Observed
Oct-18 @ 22:51 UTC
Wind
  • 310° at 7 KTS
Visibility
10 SM
Flight Rules
VFR
Cloud Levels
  • Scattered at 4,800' AGL
Temperature
11°C / 52°F
Dewpoint
C / 36°F
Humidity
54%
Altimeter
29.82" Hg
Pressure
1009.82 hPa
Previous

2 hours ago

KBED 182151Z 31008KT 10SM SCT048 13/02 A2980 RMK AO2 SLP103 T01280022
Observed
Oct-18 @ 21:51 UTC
Wind
  • 310° at 8 KTS
Visibility
10 SM
Flight Rules
VFR
Cloud Levels
  • Scattered at 4,800' AGL
Temperature
13°C / 55°F
Dewpoint
C / 36°F
Humidity
47%
Altimeter
29.8" Hg
Pressure
1009.12 hPa
Previous

3 hours ago

KBED 182051Z 30016KT 10SM SCT048 14/02 A2976 RMK AO2 SLP091 T01440022 53018
Observed
Oct-18 @ 20:51 UTC
Wind
  • 300° at 16 KTS
Visibility
10 SM
Flight Rules
VFR
Cloud Levels
  • Scattered at 4,800' AGL
Temperature
14°C / 57°F
Dewpoint
C / 36°F
Humidity
44%
Altimeter
29.76" Hg
Pressure
1007.82 hPa